Time;durP1;ratioP1;P1;durP2;ratioP2;P2;SDS_P1;SDS_P2;PMS_P1;PMS_P2;Temp;Humidity;BMP_temperature;BMP_pressure;BME280_temperature;BME280_humidity;BME280_pressure;Samples;Min_cycle;Max_cycle;Signal;HPM_P1;HPM_P2
2021/06/11 00:01:59;;;;;;;;;;;14.10;99.90;;;;;;4971930;28;19930;-65
2021/06/11 00:04:26;;;;;;;;;;;14.00;99.90;;;;;;4977858;28;20275;-65
2021/06/11 00:06:56;;;;;;;;;;;13.90;99.90;;;;;;4977612;28;19960;-66
2021/06/11 00:09:24;;;;;;;;;;;13.90;99.90;;;;;;4978904;28;19937;-65
2021/06/11 00:11:55;;;;;;;;;;;13.80;99.90;;;;;;4978080;28;19968;-66
2021/06/11 00:14:23;;;;;;;;;;;13.80;99.90;;;;;;4980443;28;19926;-65
2021/06/11 00:16:51;;;;;;;;;;;13.80;99.90;;;;;;4967754;28;19926;-66
2021/06/11 00:19:18;;;;;;;;;;;13.70;99.90;;;;;;4978253;28;19934;-66
2021/06/11 00:21:47;;;;;;;;;;;13.60;99.90;;;;;;4975127;28;19934;-65
2021/06/11 00:24:15;;;;;;;;;;;13.70;99.90;;;;;;4979724;28;20392;-68
2021/06/11 00:26:43;;;;;;;;;;;13.70;99.90;;;;;;4970687;28;19970;-65
2021/06/11 00:29:11;;;;;;;;;;;13.70;99.90;;;;;;4976636;28;19954;-66
2021/06/11 00:31:42;;;;;;;;;;;13.70;99.90;;;;;;4971069;28;20036;-65
2021/06/11 00:34:10;;;;;;;;;;;13.60;99.90;;;;;;4981025;28;19926;-65
2021/06/11 00:36:38;;;;;;;;;;;13.60;99.90;;;;;;4979670;28;19934;-65
2021/06/11 00:39:06;;;;;;;;;;;13.60;99.90;;;;;;4983218;28;19934;-66
2021/06/11 00:41:35;;;;;;;;;;;13.60;99.90;;;;;;4982978;28;19926;-66
2021/06/11 00:44:03;;;;;;;;;;;13.70;99.90;;;;;;4977708;28;19937;-65
2021/06/11 00:46:31;;;;;;;;;;;13.70;99.90;;;;;;4972302;28;20013;-68
2021/06/11 00:49:02;;;;;;;;;;;13.70;99.90;;;;;;4973628;28;19934;-65
2021/06/11 00:51:30;;;;;;;;;;;13.60;99.90;;;;;;4975061;28;19926;-66
2021/06/11 00:53:57;;;;;;;;;;;13.60;99.90;;;;;;4976613;28;20005;-66
2021/06/11 00:56:25;;;;;;;;;;;13.50;99.90;;;;;;4977557;28;20024;-66
2021/06/11 00:58:54;;;;;;;;;;;13.50;99.90;;;;;;4977371;28;19926;-65
2021/06/11 01:01:21;;;;;;;;;;;13.50;99.90;;;;;;4974820;28;20341;-65
2021/06/11 01:03:49;;;;;;;;;;;13.50;99.90;;;;;;4980272;28;19926;-65
2021/06/11 01:06:18;;;;;;;;;;;13.50;99.90;;;;;;4980637;28;19926;-65
2021/06/11 01:08:46;;;;;;;;;;;13.60;99.90;;;;;;4980486;28;19926;-65
2021/06/11 01:11:40;;;;;;;;;;;13.60;99.90;;;;;;4978075;28;20201;-65
2021/06/11 01:14:09;;;;;;;;;;;13.50;99.90;;;;;;4976889;28;19972;-66
2021/06/11 01:16:37;;;;;;;;;;;13.50;99.90;;;;;;4973604;28;19926;-66
2021/06/11 01:19:05;;;;;;;;;;;13.60;99.90;;;;;;4969767;28;20293;-66
2021/06/11 01:21:44;;;;;;;;;;;13.60;99.90;;;;;;4980800;28;19929;-66
2021/06/11 01:25:04;;;;;;;;;;;13.70;99.90;;;;;;4982061;28;20070;-66
2021/06/11 01:27:34;;;;;;;;;;;13.60;99.90;;;;;;4981673;28;19932;-66
2021/06/11 01:30:05;;;;;;;;;;;13.60;99.90;;;;;;4980134;28;19926;-66
2021/06/11 01:32:34;;;;;;;;;;;13.60;99.90;;;;;;4983656;28;20014;-66
2021/06/11 01:35:05;;;;;;;;;;;13.70;99.90;;;;;;4983267;28;19933;-66
2021/06/11 01:37:33;;;;;;;;;;;13.70;99.90;;;;;;4982028;28;19934;-66
2021/06/11 01:40:04;;;;;;;;;;;13.70;99.90;;;;;;4980278;28;20377;-66
2021/06/11 01:42:36;;;;;;;;;;;13.70;99.90;;;;;;4983294;28;19925;-66
2021/06/11 01:45:08;;;;;;;;;;;13.80;99.90;;;;;;4985989;28;19958;-66
2021/06/11 01:47:37;;;;;;;;;;;13.90;99.90;;;;;;4982567;28;20317;-66
2021/06/11 01:50:06;;;;;;;;;;;13.90;99.90;;;;;;4985004;28;19980;-68
2021/06/11 01:52:36;;;;;;;;;;;14.00;99.90;;;;;;4986504;28;20013;-65
2021/06/11 01:55:04;;;;;;;;;;;14.00;99.90;;;;;;4990660;28;19957;-65
2021/06/11 01:57:31;;;;;;;;;;;14.00;99.90;;;;;;4988688;28;19998;-66
2021/06/11 02:00:01;;;;;;;;;;;14.10;99.90;;;;;;4974185;28;19980;-66
2021/06/11 02:02:31;;;;;;;;;;;14.10;99.90;;;;;;4987832;28;20403;-65
2021/06/11 02:04:59;;;;;;;;;;;14.10;99.90;;;;;;4976363;28;19933;-66
2021/06/11 02:10:21;;;;;;;;;;;14.10;99.90;;;;;;4980815;28;19926;-66
2021/06/11 02:12:49;;;;;;;;;;;14.10;99.90;;;;;;4980370;28;19988;-66
2021/06/11 02:15:18;;;;;;;;;;;14.10;99.90;;;;;;4974482;28;19926;-66
2021/06/11 02:20:39;;;;;;;;;;;14.20;99.90;;;;;;4981354;28;19930;-66
2021/06/11 02:23:06;;;;;;;;;;;14.20;99.90;;;;;;4974556;28;20425;-65
2021/06/11 02:25:34;;;;;;;;;;;14.20;99.90;;;;;;4981368;28;20397;-66
2021/06/11 02:28:02;;;;;;;;;;;14.20;99.90;;;;;;4982386;28;20644;-66
2021/06/11 02:30:31;;;;;;;;;;;14.30;99.90;;;;;;4977215;28;19933;-66
2021/06/11 02:32:59;;;;;;;;;;;14.30;99.90;;;;;;4983264;28;19937;-66
2021/06/11 02:35:27;;;;;;;;;;;14.30;99.90;;;;;;4982220;28;19926;-66
2021/06/11 02:40:47;;;;;;;;;;;14.30;99.90;;;;;;4974128;28;19926;-66
2021/06/11 02:43:16;;;;;;;;;;;14.30;99.90;;;;;;4981258;28;21124;-66
2021/06/11 02:45:50;;;;;;;;;;;14.30;99.90;;;;;;4981127;28;19961;-65
2021/06/11 02:48:19;;;;;;;;;;;14.30;99.90;;;;;;4980207;28;20562;-65
2021/06/11 02:50:50;;;;;;;;;;;14.30;99.90;;;;;;4983412;28;19936;-66
2021/06/11 02:53:25;;;;;;;;;;;14.30;99.90;;;;;;4984733;28;19985;-66
2021/06/11 02:56:01;;;;;;;;;;;14.40;99.90;;;;;;4984925;28;20370;-65
2021/06/11 02:58:31;;;;;;;;;;;14.30;99.90;;;;;;4982206;28;19930;-66
2021/06/11 03:01:02;;;;;;;;;;;14.30;99.90;;;;;;4967544;28;19970;-66
2021/06/11 03:03:34;;;;;;;;;;;14.20;99.90;;;;;;4981878;28;19926;-65
2021/06/11 03:06:03;;;;;;;;;;;14.20;99.90;;;;;;4983075;28;19926;-66
2021/06/11 03:08:33;;;;;;;;;;;14.30;99.90;;;;;;4980511;28;19956;-65
2021/06/11 03:11:04;;;;;;;;;;;14.30;99.90;;;;;;4982459;28;19926;-66
2021/06/11 03:13:33;;;;;;;;;;;14.40;99.90;;;;;;4980032;28;19926;-65
2021/06/11 03:16:03;;;;;;;;;;;14.30;99.90;;;;;;4976232;28;19926;-65
2021/06/11 03:18:33;;;;;;;;;;;14.30;99.90;;;;;;4981586;28;20308;-65
2021/06/11 03:21:03;;;;;;;;;;;14.30;99.90;;;;;;4979774;28;19937;-65
2021/06/11 03:23:36;;;;;;;;;;;14.30;99.90;;;;;;4978541;28;20338;-65
2021/06/11 03:26:06;;;;;;;;;;;14.20;99.90;;;;;;4974848;28;19936;-65
2021/06/11 03:28:37;;;;;;;;;;;14.20;99.90;;;;;;4986917;28;19926;-65
2021/06/11 03:31:08;;;;;;;;;;;14.30;99.90;;;;;;4983019;28;19926;-66
2021/06/11 03:33:37;;;;;;;;;;;14.30;99.90;;;;;;4989252;28;20373;-66
2021/06/11 03:36:09;;;;;;;;;;;14.20;99.90;;;;;;4992703;28;19926;-65
2021/06/11 03:38:38;;;;;;;;;;;14.20;99.90;;;;;;4989781;28;19976;-65
2021/06/11 03:41:06;;;;;;;;;;;14.10;99.90;;;;;;4993244;28;20275;-65
2021/06/11 03:43:35;;;;;;;;;;;14.00;99.90;;;;;;4988712;28;20377;-65
2021/06/11 03:46:05;;;;;;;;;;;14.10;99.90;;;;;;4984726;28;19929;-66
2021/06/11 03:48:35;;;;;;;;;;;14.10;99.90;;;;;;4981022;28;20186;-66
2021/06/11 03:51:03;;;;;;;;;;;14.10;99.90;;;;;;4974693;28;19926;-66
2021/06/11 03:53:31;;;;;;;;;;;14.20;99.90;;;;;;4985751;28;19964;-65
2021/06/11 03:56:00;;;;;;;;;;;14.20;99.90;;;;;;4986136;28;19932;-66
2021/06/11 03:58:30;;;;;;;;;;;14.20;99.90;;;;;;4987764;28;19933;-66
2021/06/11 04:00:58;;;;;;;;;;;14.20;99.90;;;;;;4977634;28;19925;-67
2021/06/11 04:03:26;;;;;;;;;;;14.20;99.90;;;;;;4984486;28;20365;-66
2021/06/11 04:06:01;;;;;;;;;;;14.30;99.90;;;;;;4986709;28;20408;-66
2021/06/11 04:08:29;;;;;;;;;;;14.20;99.90;;;;;;4969651;28;20021;-66
2021/06/11 04:10:58;;;;;;;;;;;14.20;99.90;;;;;;4984046;28;20389;-66
2021/06/11 04:13:28;;;;;;;;;;;14.20;99.90;;;;;;4984860;28;20413;-66
2021/06/11 04:15:58;;;;;;;;;;;14.30;99.90;;;;;;4989860;28;19926;-65
2021/06/11 04:18:28;;;;;;;;;;;14.20;99.90;;;;;;4986046;28;19949;-66
2021/06/11 04:21:21;;;;;;;;;;;14.10;99.90;;;;;;4971208;28;20378;-65
2021/06/11 04:23:52;;;;;;;;;;;14.10;99.90;;;;;;4987115;28;19933;-66
2021/06/11 04:26:21;;;;;;;;;;;14.20;99.90;;;;;;4993268;28;19930;-66
2021/06/11 04:28:51;;;;;;;;;;;14.20;99.90;;;;;;4992621;28;19926;-66
2021/06/11 04:31:19;;;;;;;;;;;14.20;99.90;;;;;;4986238;28;19926;-66
2021/06/11 04:33:47;;;;;;;;;;;14.30;99.90;;;;;;4991485;28;19925;-67
2021/06/11 04:36:14;;;;;;;;;;;14.30;99.90;;;;;;4992864;28;19934;-66
2021/06/11 04:38:49;;;;;;;;;;;14.40;99.90;;;;;;4992866;28;20429;-66
2021/06/11 04:41:18;;;;;;;;;;;14.50;99.90;;;;;;4986765;28;19926;-66
2021/06/11 04:43:46;;;;;;;;;;;14.50;99.90;;;;;;4976139;28;20020;-66
2021/06/11 04:46:14;;;;;;;;;;;14.40;99.90;;;;;;4982842;28;19925;-66
2021/06/11 04:48:42;;;;;;;;;;;14.40;99.90;;;;;;4989046;28;19957;-64
2021/06/11 04:51:09;;;;;;;;;;;14.50;99.90;;;;;;4991767;28;20077;-64
2021/06/11 04:53:37;;;;;;;;;;;14.40;99.90;;;;;;4987614;28;19926;-65
2021/06/11 04:56:07;;;;;;;;;;;14.30;99.90;;;;;;4985799;28;20443;-65
2021/06/11 04:58:37;;;;;;;;;;;14.20;99.90;;;;;;4990047;28;19941;-67
2021/06/11 05:01:06;;;;;;;;;;;14.30;99.90;;;;;;4977186;28;19926;-65
2021/06/11 05:03:34;;;;;;;;;;;14.40;99.90;;;;;;4989381;28;20377;-66
2021/06/11 05:06:03;;;;;;;;;;;14.50;99.90;;;;;;4989136;28;19965;-67
2021/06/11 05:08:31;;;;;;;;;;;14.40;99.90;;;;;;4982398;28;19933;-65
2021/06/11 05:10:59;;;;;;;;;;;14.60;99.90;;;;;;4991484;28;19926;-65
2021/06/11 05:13:27;;;;;;;;;;;14.80;99.90;;;;;;4985803;28;19929;-65
2021/06/11 05:15:56;;;;;;;;;;;14.60;99.90;;;;;;4984750;28;19925;-64
2021/06/11 05:18:28;;;;;;;;;;;14.60;99.90;;;;;;4991017;28;20028;-64
2021/06/11 05:20:56;;;;;;;;;;;14.60;99.90;;;;;;4983192;28;19926;-64
2021/06/11 05:23:24;;;;;;;;;;;14.70;99.90;;;;;;4992135;28;20378;-64
2021/06/11 05:25:52;;;;;;;;;;;14.80;99.90;;;;;;4996884;28;19940;-65
2021/06/11 05:28:21;;;;;;;;;;;14.90;99.90;;;;;;4993393;28;20006;-66
2021/06/11 05:30:49;;;;;;;;;;;15.00;99.90;;;;;;4985307;28;19965;-65
2021/06/11 05:33:18;;;;;;;;;;;15.10;99.90;;;;;;4989365;28;19933;-67
2021/06/11 05:35:46;;;;;;;;;;;15.10;99.90;;;;;;4988124;28;20386;-66
2021/06/11 05:38:14;;;;;;;;;;;15.10;99.90;;;;;;4982823;28;19926;-65
2021/06/11 05:40:42;;;;;;;;;;;15.10;99.90;;;;;;4977482;28;20321;-66
2021/06/11 05:43:10;;;;;;;;;;;14.90;99.90;;;;;;4993586;28;19926;-66
2021/06/11 05:45:38;;;;;;;;;;;15.00;99.90;;;;;;4990348;28;20297;-65
2021/06/11 05:48:06;;;;;;;;;;;15.10;99.90;;;;;;4995760;28;20261;-66
2021/06/11 05:50:39;;;;;;;;;;;15.30;99.90;;;;;;4978913;28;19932;-66
2021/06/11 05:53:08;;;;;;;;;;;15.50;99.90;;;;;;4995053;28;19936;-66
2021/06/11 05:55:36;;;;;;;;;;;15.40;99.90;;;;;;4989519;28;19925;-66
2021/06/11 05:58:03;;;;;;;;;;;15.50;99.90;;;;;;4961832;28;19932;-65
2021/06/11 06:00:32;;;;;;;;;;;15.40;99.90;;;;;;4968947;28;19932;-65
2021/06/11 06:03:00;;;;;;;;;;;15.30;99.90;;;;;;4987656;28;19926;-65
2021/06/11 06:05:27;;;;;;;;;;;15.10;99.90;;;;;;4990900;28;19925;-65
2021/06/11 06:07:56;;;;;;;;;;;15.00;99.90;;;;;;4986168;28;19934;-65
2021/06/11 06:10:49;;;;;;;;;;;15.00;99.90;;;;;;4985477;28;19930;-65
2021/06/11 06:13:17;;;;;;;;;;;15.00;99.90;;;;;;4986975;28;19951;-65
2021/06/11 06:15:44;;;;;;;;;;;15.00;99.90;;;;;;4958188;28;19926;-65
2021/06/11 06:18:13;;;;;;;;;;;15.10;99.90;;;;;;4970039;28;19933;-65
2021/06/11 06:20:44;;;;;;;;;;;15.30;99.90;;;;;;4987147;28;20020;-66
2021/06/11 06:23:13;;;;;;;;;;;15.50;99.90;;;;;;4978160;28;19926;-64
2021/06/11 06:25:41;;;;;;;;;;;15.70;99.90;;;;;;4985916;28;20378;-64
2021/06/11 06:28:08;;;;;;;;;;;15.80;99.90;;;;;;4987566;28;19926;-65
2021/06/11 06:30:36;;;;;;;;;;;15.70;99.90;;;;;;4992637;28;19926;-64
2021/06/11 06:33:04;;;;;;;;;;;15.70;99.90;;;;;;4998280;28;20110;-64
2021/06/11 06:35:32;;;;;;;;;;;15.80;99.90;;;;;;4997319;28;19930;-65
2021/06/11 06:38:00;;;;;;;;;;;16.10;99.90;;;;;;4998852;28;19932;-65
2021/06/11 06:40:29;;;;;;;;;;;16.30;99.90;;;;;;5001606;28;20036;-67
2021/06/11 06:42:57;;;;;;;;;;;16.20;99.90;;;;;;4987571;28;19925;-65
2021/06/11 06:45:27;;;;;;;;;;;16.10;99.90;;;;;;4967715;28;19926;-65
2021/06/11 06:47:55;;;;;;;;;;;16.00;99.90;;;;;;4992552;28;19965;-65
2021/06/11 06:50:24;;;;;;;;;;;16.00;99.90;;;;;;4994887;28;20289;-65
2021/06/11 06:52:55;;;;;;;;;;;15.90;99.90;;;;;;4995079;28;19938;-66
2021/06/11 06:55:30;;;;;;;;;;;16.10;99.90;;;;;;4993680;28;20393;-66
2021/06/11 06:57:58;;;;;;;;;;;16.10;99.90;;;;;;4990779;28;19930;-65
2021/06/11 07:00:32;;;;;;;;;;;16.40;99.90;;;;;;4983793;28;19941;-64
2021/06/11 07:03:00;;;;;;;;;;;16.70;99.90;;;;;;4992693;28;19926;-64
2021/06/11 07:05:28;;;;;;;;;;;17.00;99.90;;;;;;4991358;28;19933;-64
2021/06/11 07:07:56;;;;;;;;;;;17.10;99.90;;;;;;4977793;28;19933;-66
2021/06/11 07:10:24;;;;;;;;;;;17.00;99.90;;;;;;4975275;28;19926;-64
2021/06/11 07:12:53;;;;;;;;;;;16.90;99.90;;;;;;4963741;28;20346;-68
2021/06/11 07:15:21;;;;;;;;;;;17.30;99.90;;;;;;4968966;28;19941;-64
2021/06/11 07:17:48;;;;;;;;;;;17.40;99.90;;;;;;4972292;28;19930;-64
2021/06/11 07:20:17;;;;;;;;;;;17.30;99.90;;;;;;4975500;28;19926;-64
2021/06/11 07:22:44;;;;;;;;;;;17.30;99.90;;;;;;4975257;28;19933;-65
2021/06/11 07:25:12;;;;;;;;;;;17.60;99.90;;;;;;4953109;29;20382;-65
2021/06/11 07:27:40;;;;;;;;;;;18.10;99.90;;;;;;4970732;28;19933;-65
2021/06/11 07:30:10;;;;;;;;;;;18.70;99.90;;;;;;4943440;28;19926;-65
2021/06/11 07:32:42;;;;;;;;;;;19.50;99.90;;;;;;4965092;28;20449;-68
2021/06/11 07:35:11;;;;;;;;;;;19.90;99.90;;;;;;4974231;28;19926;-65
2021/06/11 07:37:39;;;;;;;;;;;20.20;99.90;;;;;;4951789;29;19926;-70
2021/06/11 07:40:08;;;;;;;;;;;21.60;99.90;;;;;;4952347;28;19926;-66
2021/06/11 07:42:36;;;;;;;;;;;22.30;99.90;;;;;;4968041;28;19957;-66
2021/06/11 07:45:05;;;;;;;;;;;22.10;99.90;;;;;;4952633;28;19926;-64
2021/06/11 07:47:34;;;;;;;;;;;22.10;99.90;;;;;;4973389;28;20302;-66
2021/06/11 07:50:03;;;;;;;;;;;23.40;99.90;;;;;;4971453;28;19934;-64
2021/06/11 07:52:34;;;;;;;;;;;24.40;99.90;;;;;;4972736;28;20309;-63
2021/06/11 07:55:03;;;;;;;;;;;27.10;99.90;;;;;;4974496;28;19930;-65
2021/06/11 07:57:32;;;;;;;;;;;25.70;99.90;;;;;;4973211;28;20413;-64
2021/06/11 08:00:00;;;;;;;;;;;24.40;99.90;;;;;;4971363;28;20337;-63
2021/06/11 08:02:27;;;;;;;;;;;23.90;99.90;;;;;;4967955;28;19933;-64
2021/06/11 08:04:57;;;;;;;;;;;24.80;99.90;;;;;;4971068;28;20362;-65
2021/06/11 08:07:29;;;;;;;;;;;25.60;99.90;;;;;;4967635;28;20386;-67
2021/06/11 08:10:21;;;;;;;;;;;25.30;99.90;;;;;;4968602;28;19926;-69
2021/06/11 08:12:49;;;;;;;;;;;25.30;99.90;;;;;;4982132;28;19929;-64
2021/06/11 08:15:18;;;;;;;;;;;24.80;99.90;;;;;;4988011;28;19953;-63
2021/06/11 08:17:46;;;;;;;;;;;25.20;99.90;;;;;;4975394;28;20307;-63
2021/06/11 08:20:16;;;;;;;;;;;25.10;99.90;;;;;;4970966;28;19926;-63
2021/06/11 08:22:43;;;;;;;;;;;25.20;99.90;;;;;;4975270;28;20381;-65
2021/06/11 08:25:12;;;;;;;;;;;25.70;99.90;;;;;;4974399;28;19926;-64
2021/06/11 08:27:41;;;;;;;;;;;26.50;99.90;;;;;;4989354;28;20333;-64
2021/06/11 08:30:09;;;;;;;;;;;25.60;99.90;;;;;;4985190;28;20394;-65
2021/06/11 08:32:53;;;;;;;;;;;25.20;99.90;;;;;;4986708;28;19930;-64
2021/06/11 08:35:22;;;;;;;;;;;25.70;99.90;;;;;;4980475;28;19937;-64
2021/06/11 08:37:50;;;;;;;;;;;25.60;99.90;;;;;;4983559;28;19973;-64
2021/06/11 08:40:18;;;;;;;;;;;25.80;99.90;;;;;;4984975;28;19973;-63
2021/06/11 08:42:46;;;;;;;;;;;26.20;99.90;;;;;;4987163;28;19926;-65
2021/06/11 08:45:15;;;;;;;;;;;26.80;99.60;;;;;;4978442;28;20370;-64
2021/06/11 08:48:08;;;;;;;;;;;26.70;99.10;;;;;;4988118;28;19940;-64
2021/06/11 08:50:40;;;;;;;;;;;25.70;99.90;;;;;;4964896;28;19932;-64
2021/06/11 08:53:08;;;;;;;;;;;26.90;99.90;;;;;;4988723;28;19973;-64
2021/06/11 08:55:37;;;;;;;;;;;27.10;98.70;;;;;;4989906;28;19926;-63
2021/06/11 08:58:05;;;;;;;;;;;27.30;99.00;;;;;;4985647;28;19965;-64
2021/06/11 09:00:33;;;;;;;;;;;27.90;97.90;;;;;;4985124;28;19934;-66
2021/06/11 09:03:33;;;;;;;;;;;26.90;98.20;;;;;;4989154;28;20377;-64
2021/06/11 09:06:07;;;;;;;;;;;28.40;98.80;;;;;;4952437;28;19933;-66
2021/06/11 09:08:36;;;;;;;;;;;29.60;95.00;;;;;;4969406;28;20408;-65
2021/06/11 09:11:14;;;;;;;;;;;33.60;87.30;;;;;;4989604;28;19934;-65
2021/06/11 09:13:42;;;;;;;;;;;36.60;71.30;;;;;;4989464;28;19926;-65
2021/06/11 09:16:11;;;;;;;;;;;34.40;68.60;;;;;;4982512;28;20048;-64
2021/06/11 09:18:43;;;;;;;;;;;30.60;77.40;;;;;;4985597;28;19926;-65
2021/06/11 09:21:38;;;;;;;;;;;28.90;91.40;;;;;;4987128;28;19925;-66
2021/06/11 09:24:22;;;;;;;;;;;27.70;93.40;;;;;;4985219;28;19925;-66
2021/06/11 09:29:57;;;;;;;;;;;26.50;96.90;;;;;;4975258;28;20309;-67
2021/06/11 09:32:26;;;;;;;;;;;26.20;97.40;;;;;;4971163;28;19930;-65
2021/06/11 09:37:48;;;;;;;;;;;26.30;98.20;;;;;;4962972;28;19965;-66
2021/06/11 09:40:16;;;;;;;;;;;26.60;97.20;;;;;;4989078;28;19961;-65
2021/06/11 09:42:47;;;;;;;;;;;27.60;97.70;;;;;;4991150;28;20020;-65
2021/06/11 09:45:27;;;;;;;;;;;26.30;97.30;;;;;;4972342;28;20000;-66
2021/06/11 09:47:54;;;;;;;;;;;26.50;99.90;;;;;;4979403;28;19930;-66
2021/06/11 09:50:25;;;;;;;;;;;27.00;97.50;;;;;;4992377;28;19988;-65
2021/06/11 09:52:58;;;;;;;;;;;26.60;97.40;;;;;;4987780;28;20305;-65
2021/06/11 09:55:30;;;;;;;;;;;25.50;99.30;;;;;;4990795;28;20321;-66
2021/06/11 09:58:12;;;;;;;;;;;25.40;99.90;;;;;;4989693;28;20297;-66
2021/06/11 10:00:51;;;;;;;;;;;25.30;99.90;;;;;;4971810;28;19926;-66
2021/06/11 10:03:21;;;;;;;;;;;25.40;99.90;;;;;;4988892;28;19926;-65
2021/06/11 10:05:49;;;;;;;;;;;25.60;99.90;;;;;;4994440;28;19962;-66
2021/06/11 10:08:19;;;;;;;;;;;25.50;99.90;;;;;;4996476;28;20209;-65
2021/06/11 10:10:47;;;;;;;;;;;25.40;99.90;;;;;;4985851;28;20345;-67
2021/06/11 10:13:15;;;;;;;;;;;24.70;99.90;;;;;;4994950;28;19976;-66
2021/06/11 10:15:44;;;;;;;;;;;24.10;99.50;;;;;;4975345;28;19929;-69
2021/06/11 10:18:12;;;;;;;;;;;24.30;99.90;;;;;;4978233;28;20014;-65
2021/06/11 10:20:41;;;;;;;;;;;24.60;97.80;;;;;;4995835;28;19948;-66
2021/06/11 10:23:09;;;;;;;;;;;25.20;98.00;;;;;;4987192;28;19934;-65
2021/06/11 10:25:43;;;;;;;;;;;28.10;90.40;;;;;;4977761;28;19995;-66
2021/06/11 10:28:17;;;;;;;;;;;29.90;80.50;;;;;;4994440;28;20333;-64
2021/06/11 10:30:45;;;;;;;;;;;29.20;82.10;;;;;;4979571;28;19930;-63
2021/06/11 10:33:13;;;;;;;;;;;28.40;84.30;;;;;;4988294;28;19925;-64
2021/06/11 10:35:42;;;;;;;;;;;27.80;88.10;;;;;;4994809;28;19941;-63
2021/06/11 10:38:10;;;;;;;;;;;26.90;91.10;;;;;;4994510;28;19926;-67
2021/06/11 10:40:40;;;;;;;;;;;26.80;91.00;;;;;;4990762;28;20020;-66
2021/06/11 10:43:25;;;;;;;;;;;27.00;90.20;;;;;;4992301;28;20353;-66
2021/06/11 10:45:55;;;;;;;;;;;27.20;87.20;;;;;;4970237;28;19940;-66
2021/06/11 10:48:24;;;;;;;;;;;26.50;88.00;;;;;;4993108;28;19973;-65
2021/06/11 10:50:52;;;;;;;;;;;26.50;90.40;;;;;;4994238;28;20033;-65
2021/06/11 10:53:28;;;;;;;;;;;26.70;90.70;;;;;;4994004;28;19926;-65
2021/06/11 10:56:14;;;;;;;;;;;26.70;89.40;;;;;;4959950;28;20029;-63
2021/06/11 10:58:43;;;;;;;;;;;26.80;86.30;;;;;;4992451;28;20353;-67
2021/06/11 11:01:21;;;;;;;;;;;27.30;87.20;;;;;;4984148;28;19925;-64
2021/06/11 11:03:49;;;;;;;;;;;28.00;85.20;;;;;;4987985;28;20021;-66
2021/06/11 11:06:36;;;;;;;;;;;30.00;75.50;;;;;;4982004;28;19925;-65
2021/06/11 11:09:05;;;;;;;;;;;29.40;76.80;;;;;;4974121;28;19926;-66
2021/06/11 11:11:42;;;;;;;;;;;28.90;77.80;;;;;;4988968;28;20040;-65
2021/06/11 11:14:28;;;;;;;;;;;27.10;82.40;;;;;;4980533;28;19937;-65
2021/06/11 11:16:59;;;;;;;;;;;26.80;87.70;;;;;;4984350;28;19926;-66
2021/06/11 11:19:46;;;;;;;;;;;26.50;83.80;;;;;;4990701;28;19934;-66
2021/06/11 11:22:23;;;;;;;;;;;26.10;83.70;;;;;;4989019;28;19940;-66
2021/06/11 11:24:51;;;;;;;;;;;26.70;87.40;;;;;;4966231;28;20429;-66
2021/06/11 11:27:21;;;;;;;;;;;27.10;85.80;;;;;;4976695;28;19925;-66
2021/06/11 11:29:49;;;;;;;;;;;27.00;83.80;;;;;;4975305;28;19981;-66
2021/06/11 11:32:16;;;;;;;;;;;27.00;87.20;;;;;;4981378;28;19933;-64
2021/06/11 11:34:44;;;;;;;;;;;26.90;90.50;;;;;;4972609;28;19934;-64
2021/06/11 11:37:13;;;;;;;;;;;26.70;82.40;;;;;;4988104;28;19948;-64
2021/06/11 11:39:47;;;;;;;;;;;26.50;83.20;;;;;;4976934;28;19925;-68
2021/06/11 11:42:50;;;;;;;;;;;26.80;84.80;;;;;;4965532;28;19926;-65
2021/06/11 11:45:44;;;;;;;;;;;27.30;80.90;;;;;;4959167;28;19930;-65
2021/06/11 11:48:15;;;;;;;;;;;26.90;82.00;;;;;;4991964;28;20283;-65
2021/06/11 11:50:42;;;;;;;;;;;27.20;78.40;;;;;;4990021;28;20359;-66
2021/06/11 11:53:10;;;;;;;;;;;27.30;76.80;;;;;;4988767;28;20321;-66
2021/06/11 11:55:40;;;;;;;;;;;27.10;72.40;;;;;;4993886;28;20365;-66
2021/06/11 11:58:10;;;;;;;;;;;26.90;73.80;;;;;;4991774;28;19939;-64
2021/06/11 12:00:37;;;;;;;;;;;26.80;77.00;;;;;;4986729;28;19926;-65
2021/06/11 12:03:05;;;;;;;;;;;26.20;75.20;;;;;;4993962;28;19930;-66
2021/06/11 12:05:33;;;;;;;;;;;26.20;78.40;;;;;;4976096;28;19926;-65
2021/06/11 12:08:01;;;;;;;;;;;26.20;79.30;;;;;;4977876;28;20071;-66
2021/06/11 12:10:29;;;;;;;;;;;26.20;79.20;;;;;;4982656;28;20390;-67
2021/06/11 12:12:57;;;;;;;;;;;26.40;79.60;;;;;;4992929;28;19926;-65
2021/06/11 12:15:27;;;;;;;;;;;26.10;76.70;;;;;;4969294;28;20017;-66
2021/06/11 12:17:57;;;;;;;;;;;26.10;78.60;;;;;;4993876;28;19925;-65
2021/06/11 12:20:29;;;;;;;;;;;25.70;79.00;;;;;;4976307;28;20341;-67
2021/06/11 12:22:57;;;;;;;;;;;25.90;80.80;;;;;;4989351;28;19929;-66
2021/06/11 12:25:25;;;;;;;;;;;26.10;81.20;;;;;;4981789;28;19984;-67
2021/06/11 12:27:53;;;;;;;;;;;26.20;84.00;;;;;;4984712;28;20025;-65
2021/06/11 12:30:22;;;;;;;;;;;26.20;82.90;;;;;;4983624;28;19926;-65
2021/06/11 12:32:51;;;;;;;;;;;25.80;84.90;;;;;;4993430;28;19926;-65
2021/06/11 12:35:19;;;;;;;;;;;25.70;87.60;;;;;;4955226;28;19965;-66
2021/06/11 12:37:47;;;;;;;;;;;25.90;84.10;;;;;;4987407;28;20403;-65
2021/06/11 12:40:19;;;;;;;;;;;26.00;86.10;;;;;;4976346;28;20370;-65
2021/06/11 12:42:51;;;;;;;;;;;26.20;83.40;;;;;;4988465;28;19930;-65
2021/06/11 12:45:44;;;;;;;;;;;26.20;77.10;;;;;;4978021;28;19972;-69
2021/06/11 12:48:15;;;;;;;;;;;26.10;81.20;;;;;;4968335;28;20016;-65
2021/06/11 12:50:43;;;;;;;;;;;26.00;79.30;;;;;;4989470;28;19934;-65
2021/06/11 12:53:11;;;;;;;;;;;25.90;74.70;;;;;;4991143;28;20345;-66
2021/06/11 12:55:41;;;;;;;;;;;25.90;74.90;;;;;;4973380;28;19926;-66
2021/06/11 12:58:09;;;;;;;;;;;26.00;76.70;;;;;;4984439;28;19934;-65
2021/06/11 13:00:37;;;;;;;;;;;26.20;78.40;;;;;;4979010;28;20385;-66
2021/06/11 13:03:05;;;;;;;;;;;26.30;75.10;;;;;;4964884;28;19926;-66
2021/06/11 13:05:34;;;;;;;;;;;26.30;72.90;;;;;;4974341;28;20103;-67
2021/06/11 13:08:03;;;;;;;;;;;26.50;77.00;;;;;;4961969;28;19932;-65
2021/06/11 13:10:30;;;;;;;;;;;26.60;77.00;;;;;;4984444;28;20433;-66
2021/06/11 13:12:58;;;;;;;;;;;26.50;74.40;;;;;;4985809;28;20297;-66
2021/06/11 13:15:27;;;;;;;;;;;26.40;76.40;;;;;;4983812;28;19926;-66
2021/06/11 13:17:55;;;;;;;;;;;26.50;77.00;;;;;;4978852;28;19932;-66
2021/06/11 13:20:23;;;;;;;;;;;26.50;77.90;;;;;;4986710;28;19938;-67
2021/06/11 13:22:52;;;;;;;;;;;26.60;78.90;;;;;;4985970;28;19925;-66
2021/06/11 13:25:20;;;;;;;;;;;26.60;75.10;;;;;;4983068;28;19926;-65
2021/06/11 13:27:48;;;;;;;;;;;26.60;76.60;;;;;;4974255;28;20386;-66
2021/06/11 13:30:16;;;;;;;;;;;26.70;74.60;;;;;;4982113;28;19932;-64
2021/06/11 13:32:43;;;;;;;;;;;26.80;74.40;;;;;;4990384;28;19926;-66
2021/06/11 13:35:12;;;;;;;;;;;26.90;73.90;;;;;;4984990;28;20066;-65
2021/06/11 13:37:40;;;;;;;;;;;27.00;72.70;;;;;;4982741;28;20030;-65
2021/06/11 13:43:02;;;;;;;;;;;27.30;72.30;;;;;;4985082;28;19964;-66
2021/06/11 13:45:31;;;;;;;;;;;27.30;73.80;;;;;;4989314;28;19926;-65
2021/06/11 13:47:59;;;;;;;;;;;27.30;76.80;;;;;;4988286;28;19926;-67
2021/06/11 13:53:26;;;;;;;;;;;27.00;71.30;;;;;;4981061;28;20033;-65
2021/06/11 13:55:57;;;;;;;;;;;26.70;71.50;;;;;;4979238;28;19925;-66
2021/06/11 13:58:25;;;;;;;;;;;27.30;74.20;;;;;;4979719;28;19930;-66
2021/06/11 14:00:53;;;;;;;;;;;28.00;72.00;;;;;;4978020;28;19972;-68
2021/06/11 14:03:22;;;;;;;;;;;29.00;69.90;;;;;;4989467;28;19960;-67
2021/06/11 14:06:15;;;;;;;;;;;29.00;65.40;;;;;;4971599;28;19993;-67
2021/06/11 14:08:43;;;;;;;;;;;28.80;66.50;;;;;;4994496;28;19926;-65
2021/06/11 14:11:13;;;;;;;;;;;28.30;69.50;;;;;;4983993;28;19949;-66
2021/06/11 14:13:40;;;;;;;;;;;28.30;69.80;;;;;;4994081;28;19929;-66
2021/06/11 14:16:14;;;;;;;;;;;28.10;70.20;;;;;;4983939;28;19926;-66
2021/06/11 14:18:42;;;;;;;;;;;28.10;70.60;;;;;;4984287;28;19930;-66
2021/06/11 14:21:10;;;;;;;;;;;27.80;72.60;;;;;;4981362;28;19926;-67
2021/06/11 14:23:38;;;;;;;;;;;27.90;72.90;;;;;;4985050;28;19953;-66
2021/06/11 14:26:06;;;;;;;;;;;27.80;72.90;;;;;;4986239;28;19926;-67
2021/06/11 14:28:35;;;;;;;;;;;27.60;73.60;;;;;;4986283;28;19925;-65
2021/06/11 14:31:04;;;;;;;;;;;27.40;75.20;;;;;;4993016;28;19980;-66
2021/06/11 14:33:33;;;;;;;;;;;27.40;74.60;;;;;;4988040;28;19926;-67
2021/06/11 14:36:01;;;;;;;;;;;27.50;76.30;;;;;;4988610;28;19926;-66
2021/06/11 14:38:29;;;;;;;;;;;27.60;76.60;;;;;;4983841;28;19972;-66
2021/06/11 14:40:57;;;;;;;;;;;27.60;75.40;;;;;;4989581;28;19929;-65
2021/06/11 14:43:25;;;;;;;;;;;27.40;76.90;;;;;;4986573;28;19930;-66
2021/06/11 14:45:55;;;;;;;;;;;27.40;78.80;;;;;;4977399;28;19948;-65
2021/06/11 14:48:23;;;;;;;;;;;27.40;77.60;;;;;;4992297;28;19934;-65
2021/06/11 14:50:51;;;;;;;;;;;27.20;76.70;;;;;;4992972;28;20332;-67
2021/06/11 14:53:28;;;;;;;;;;;26.90;77.30;;;;;;4992852;28;20382;-66
2021/06/11 14:56:02;;;;;;;;;;;26.60;79.90;;;;;;4989425;28;19929;-66